Time;durP1;ratioP1;P1;durP2;ratioP2;P2;SDS_P1;SDS_P2;PMS_P1;PMS_P2;Temp;Humidity;BMP_temperature;BMP_pressure;BME280_temperature;BME280_humidity;BME280_pressure;Samples;Min_cycle;Max_cycle;Signal;HPM_P1;HPM_P2
2022/01/04 00:01:23;;;;;;;16.83;6.60;;;;;;;;;;4882480;29;20186;-86
2022/01/04 00:03:49;;;;;;;15.53;6.70;;;5.50;99.90;;;;;;4881403;29;20523;-86
2022/01/04 00:06:15;;;;;;;17.27;6.97;;;;;;;;;;4880763;29;20185;-87
2022/01/04 00:08:41;;;;;;;21.43;6.60;;;;;;;;;;4881110;29;20218;-86
2022/01/04 00:11:15;;;;;;;14.77;6.83;;;;;;;;;;4882023;29;20611;-86
2022/01/04 00:13:41;;;;;;;17.20;7.23;;;;;;;;;;4881273;29;20185;-86
2022/01/04 00:16:08;;;;;;;14.77;6.93;;;;;;;;;;4865358;29;20221;-86
2022/01/04 00:18:34;;;;;;;15.73;6.60;;;5.60;99.90;;;;;;4880475;29;20201;-86
2022/01/04 00:21:00;;;;;;;16.90;6.63;;;;;;;;;;4882454;29;20193;-87
2022/01/04 00:23:27;;;;;;;19.57;6.70;;;;;;;;;;4881832;29;20196;-87
2022/01/04 00:25:53;;;;;;;13.30;6.30;;;;;;;;;;4882084;29;20196;-86
2022/01/04 00:28:19;;;;;;;15.47;6.53;;;;;;;;;;4880680;29;20196;-87
2022/01/04 00:30:45;;;;;;;14.03;6.27;;;;;;;;;;4881652;29;20223;-87
2022/01/04 00:33:12;;;;;;;22.60;7.57;;;5.40;99.90;;;;;;4888385;29;20213;-87
2022/01/04 00:35:40;;;;;;;14.83;7.27;;;5.40;99.90;;;;;;4891449;29;20213;-87
2022/01/04 00:38:06;;;;;;;19.07;7.20;;;;;;;;;;4882731;29;20190;-87
2022/01/04 00:40:32;;;;;;;13.93;6.80;;;;;;;;;;4880865;29;20185;-87
2022/01/04 00:42:59;;;;;;;16.57;5.77;;;;;;;;;;4881586;29;20289;-87
2022/01/04 00:45:26;;;;;;;19.83;6.80;;;5.30;99.90;;;;;;4880443;29;20186;-87
2022/01/04 00:50:22;;;;;;;14.53;7.43;;;5.30;99.90;;;;;;4881694;29;20201;-87
2022/01/04 00:52:48;;;;;;;15.33;7.20;;;;;;;;;;4880564;29;20648;-86
2022/01/04 00:55:14;;;;;;;15.90;7.63;;;5.00;99.90;;;;;;4880161;29;20196;-87
2022/01/04 00:57:40;;;;;;;21.53;8.17;;;5.20;99.90;;;;;;4879835;29;20625;-87
2022/01/04 01:00:07;;;;;;;19.97;7.63;;;5.20;99.90;;;;;;4864885;29;20196;-87
2022/01/04 01:02:33;;;;;;;21.33;7.93;;;;;;;;;;4864727;29;20554;-87
2022/01/04 01:04:59;;;;;;;22.50;7.93;;;;;;;;;;4881201;29;20269;-87
2022/01/04 01:07:26;;;;;;;20.03;8.73;;;;;;;;;;4881223;29;20261;-87
2022/01/04 01:12:26;;;;;;;15.50;7.30;;;;;;;;;;4880994;29;20181;-86
2022/01/04 01:14:53;;;;;;;13.67;6.57;;;;;;;;;;4879999;29;20190;-87
2022/01/04 01:17:19;;;;;;;14.77;6.43;;;;;;;;;;4879129;29;20236;-87
2022/01/04 01:19:45;;;;;;;11.30;6.30;;;;;;;;;;4881080;29;20190;-86
2022/01/04 01:22:11;;;;;;;18.57;6.90;;;;;;;;;;4879314;29;20304;-87
2022/01/04 01:24:37;;;;;;;14.53;6.27;;;;;;;;;;4880777;29;20675;-86
2022/01/04 01:27:03;;;;;;;23.33;9.07;;;;;;;;;;4885619;29;20185;-87
2022/01/04 01:29:29;;;;;;;19.73;7.30;;;;;;;;;;4891051;29;20212;-87
2022/01/04 01:31:55;;;;;;;19.33;8.27;;;;;;;;;;4889216;29;20660;-89
2022/01/04 01:34:23;;;;;;;15.67;7.10;;;;;;;;;;4869278;29;20198;-87
2022/01/04 01:36:49;;;;;;;18.93;7.67;;;;;;;;;;4880012;29;20365;-87
2022/01/04 01:39:15;;;;;;;13.77;7.20;;;;;;;;;;4880796;29;20198;-87
2022/01/04 01:41:41;;;;;;;17.80;7.37;;;5.10;99.90;;;;;;4880707;29;20193;-88
2022/01/04 01:44:07;;;;;;;17.43;7.77;;;;;;;;;;4880353;29;20193;-87
2022/01/04 01:46:33;;;;;;;17.33;7.70;;;;;;;;;;4879051;29;20605;-87
2022/01/04 01:48:58;;;;;;;19.47;7.57;;;4.90;99.90;;;;;;4880546;29;20648;-87
2022/01/04 01:51:28;;;;;;;15.13;6.73;;;5.10;99.90;;;;;;4863962;29;20198;-87
2022/01/04 01:53:54;;;;;;;14.40;6.70;;;;;;;;;;4880097;29;20182;-86
2022/01/04 01:56:20;;;;;;;15.83;7.20;;;;;;;;;;4878410;29;20692;-87
2022/01/04 01:58:46;;;;;;;16.30;6.97;;;;;;;;;;4880195;29;20174;-86
2022/01/04 02:01:12;;;;;;;16.83;7.57;;;;;;;;;;4880327;29;20189;-87
2022/01/04 02:03:38;;;;;;;18.00;7.90;;;5.10;99.90;;;;;;4880128;29;20186;-87
2022/01/04 02:06:04;;;;;;;18.87;7.57;;;;;;;;;;4879235;29;20199;-87
2022/01/04 02:08:31;;;;;;;15.63;6.77;;;;;;;;;;4880217;29;20192;-86
2022/01/04 02:10:57;;;;;;;16.33;7.60;;;5.00;99.90;;;;;;4879909;29;20193;-86
2022/01/04 02:13:24;;;;;;;12.20;6.33;;;;;;;;;;4879826;29;20190;-87
2022/01/04 02:15:51;;;;;;;16.90;6.97;;;;;;;;;;4879104;29;20300;-87
2022/01/04 02:18:17;;;;;;;26.07;8.23;;;;;;;;;;4880204;29;20197;-86
2022/01/04 02:20:43;;;;;;;19.00;7.70;;;;;;;;;;4878568;29;20673;-88
2022/01/04 02:23:09;;;;;;;17.80;6.50;;;;;;;;;;4878826;29;20322;-87
2022/01/04 02:25:35;;;;;;;19.73;7.90;;;;;;;;;;4878860;29;20268;-86
2022/01/04 02:28:02;;;;;;;16.10;7.37;;;;;;;;;;4879994;29;20268;-87
2022/01/04 02:30:28;;;;;;;20.40;7.33;;;;;;;;;;4879854;29;20189;-87
2022/01/04 02:32:54;;;;;;;17.43;7.20;;;;;;;;;;4863239;29;20192;-88
2022/01/04 02:35:24;;;;;;;16.17;7.13;;;4.90;99.90;;;;;;4879325;29;20196;-90
2022/01/04 02:37:50;;;;;;;21.87;6.73;;;;;;;;;;4880032;29;20193;-87
2022/01/04 02:40:16;;;;;;;18.23;7.43;;;;;;;;;;4878547;29;20201;-87
2022/01/04 02:42:42;;;;;;;12.50;6.43;;;;;;;;;;4878390;29;20555;-86
2022/01/04 02:45:08;;;;;;;13.80;6.93;;;4.90;99.90;;;;;;4879893;29;20185;-88
2022/01/04 02:47:34;;;;;;;19.07;8.13;;;;;;;;;;4878105;29;20197;-87
2022/01/04 02:50:01;;;;;;;11.17;6.60;;;;;;;;;;4879601;29;20214;-87
2022/01/04 02:52:27;;;;;;;15.07;6.73;;;;;;;;;;4879207;29;20678;-88
2022/01/04 02:54:53;;;;;;;14.63;7.17;;;;;;;;;;4878435;29;20526;-87
2022/01/04 02:57:19;;;;;;;15.63;6.57;;;;;;;;;;4879210;29;20247;-87
2022/01/04 02:59:46;;;;;;;15.53;7.37;;;;;;;;;;4862584;29;20200;-87
2022/01/04 03:02:12;;;;;;;15.67;6.47;;;;;;;;;;4879512;29;20264;-86
2022/01/04 03:04:38;;;;;;;13.97;6.60;;;;;;;;;;4879523;29;20271;-86
2022/01/04 03:07:04;;;;;;;10.77;4.37;;;;;;;;;;4862580;29;20204;-86
2022/01/04 03:09:30;;;;;;;13.77;6.20;;;;;;;;;;4879528;29;20229;-87
2022/01/04 03:11:56;;;;;;;16.27;6.30;;;;;;;;;;4879538;29;20635;-86
2022/01/04 03:14:23;;;;;;;15.47;6.27;;;;;;;;;;4879266;29;20550;-87
2022/01/04 03:16:49;;;;;;;14.97;5.50;;;;;;;;;;4877993;29;20231;-86
2022/01/04 03:19:15;;;;;;;19.80;6.80;;;;;;;;;;4878505;29;20284;-86
2022/01/04 03:21:43;;;;;;;17.17;6.93;;;5.00;99.90;;;;;;4877851;29;20278;-86
2022/01/04 03:24:11;;;;;;;13.43;7.30;;;5.00;99.90;;;;;;4879427;29;20186;-86
2022/01/04 03:26:37;;;;;;;18.83;6.93;;;;;;;;;;4879355;29;20189;-86
2022/01/04 03:29:05;;;;;;;17.70;6.20;;;5.00;99.90;;;;;;4879299;29;20210;-86
2022/01/04 03:31:31;;;;;;;13.00;5.77;;;;;;;;;;4877972;29;20226;-86
2022/01/04 03:33:57;;;;;;;13.67;5.37;;;;;;;;;;4878247;29;20672;-86
2022/01/04 03:36:24;;;;;;;11.03;5.37;;;;;;;;;;4879301;29;20258;-87
2022/01/04 03:38:54;;;;;;;11.23;5.50;;;5.00;99.90;;;;;;4878948;29;20272;-87
2022/01/04 03:41:21;;;;;;;12.47;5.87;;;5.00;99.90;;;;;;4879067;29;20186;-87
2022/01/04 03:43:47;;;;;;;11.10;6.43;;;;;;;;;;4879227;29;20190;-87
2022/01/04 03:46:13;;;;;;;13.13;5.83;;;;;;;;;;4878180;29;20190;-86
2022/01/04 03:48:39;;;;;;;15.33;6.07;;;;;;;;;;4878068;29;20292;-86
2022/01/04 03:51:06;;;;;;;13.87;6.10;;;4.80;99.90;;;;;;4879221;29;20183;-87
2022/01/04 03:53:32;;;;;;;15.03;6.33;;;;;;;;;;4865008;29;20204;-87
2022/01/04 03:55:58;;;;;;;17.47;6.73;;;;;;;;;;4881142;29;20303;-86
2022/01/04 03:58:24;;;;;;;19.00;7.13;;;;;;;;;;4882888;29;20188;-87
2022/01/04 04:00:50;;;;;;;14.17;6.17;;;;;;;;;;4882237;29;20472;-86
2022/01/04 04:03:17;;;;;;;17.33;7.10;;;4.50;99.90;;;;;;4865756;29;20194;-86
2022/01/04 04:05:43;;;;;;;17.03;7.83;;;;;;;;;;4880956;29;20193;-87
2022/01/04 04:08:09;;;;;;;18.10;7.87;;;;;;;;;;4882452;29;20697;-93
2022/01/04 04:10:35;;;;;;;15.00;8.10;;;;;;;;;;4880998;29;20592;-87
2022/01/04 04:13:02;;;;;;;14.40;7.50;;;;;;;;;;4891524;29;20276;-86
2022/01/04 04:15:28;;;;;;;18.53;7.53;;;;;;;;;;4896684;29;20191;-87
2022/01/04 04:17:54;;;;;;;12.70;6.33;;;;;;;;;;4884253;29;20200;-88
2022/01/04 04:20:20;;;;;;;16.57;7.50;;;;;;;;;;4881102;29;20227;-87
2022/01/04 04:22:47;;;;;;;12.53;6.50;;;;;;;;;;4881835;29;20192;-87
2022/01/04 04:25:13;;;;;;;21.17;7.43;;;;;;;;;;4881250;29;20540;-88
2022/01/04 04:27:39;;;;;;;15.03;6.73;;;;;;;;;;4881462;29;20189;-88
2022/01/04 04:30:05;;;;;;;17.77;6.67;;;3.90;99.90;;;;;;4880165;29;20182;-90
2022/01/04 04:32:31;;;;;;;15.23;6.50;;;;;;;;;;4881556;29;20192;-89
2022/01/04 04:34:57;;;;;;;20.40;7.43;;;;;;;;;;4879644;29;20183;-89
2022/01/04 04:37:24;;;;;;;14.93;6.43;;;;;;;;;;4864765;29;20682;-89
2022/01/04 04:39:50;;;;;;;15.63;7.23;;;;;;;;;;4880816;29;20252;-89
2022/01/04 04:42:16;;;;;;;14.33;6.80;;;;;;;;;;4881806;29;20182;-91
2022/01/04 04:44:44;;;;;;;13.07;6.27;;;;;;;;;;4864621;29;20196;-89
2022/01/04 04:47:10;;;;;;;16.13;6.07;;;;;;;;;;4880824;29;20200;-89
2022/01/04 04:49:36;;;;;;;23.50;9.03;;;;;;;;;;4881371;29;20268;-88
2022/01/04 04:52:02;;;;;;;17.87;8.27;;;;;;;;;;4881011;29;20182;-89
2022/01/04 04:54:28;;;;;;;21.93;9.80;;;;;;;;;;4880689;29;20711;-89
2022/01/04 04:56:54;;;;;;;21.63;10.60;;;;;;;;;;4880884;29;20248;-90
2022/01/04 04:59:20;;;;;;;23.53;9.10;;;;;;;;;;4880134;29;20193;-89
2022/01/04 05:01:46;;;;;;;24.37;12.50;;;;;;;;;;4879227;29;20263;-89
2022/01/04 05:04:12;;;;;;;17.57;8.40;;;;;;;;;;4879490;29;20188;-88
2022/01/04 05:06:38;;;;;;;20.57;10.07;;;;;;;;;;4864428;29;20209;-89
2022/01/04 05:09:04;;;;;;;33.27;12.50;;;;;;;;;;4882427;29;20204;-90
2022/01/04 05:11:32;;;;;;;26.17;12.20;;;;;;;;;;4880550;29;20185;-89
2022/01/04 05:13:58;;;;;;;24.47;11.37;;;;;;;;;;4879126;29;20700;-88
2022/01/04 05:16:24;;;;;;;34.53;15.80;;;;;;;;;;4879654;29;20217;-90
2022/01/04 05:18:50;;;;;;;30.40;16.80;;;;;;;;;;4879661;29;20284;-88
2022/01/04 05:21:16;;;;;;;32.33;16.63;;;;;;;;;;4880593;29;20188;-88
2022/01/04 05:23:42;;;;;;;35.20;19.70;;;;;;;;;;4879454;29;20599;-89
2022/01/04 05:26:09;;;;;;;23.70;11.40;;;;;;;;;;4880874;29;20241;-89
2022/01/04 05:28:35;;;;;;;27.50;13.53;;;;;;;;;;4879606;29;20192;-88
2022/01/04 05:31:01;;;;;;;25.37;10.30;;;;;;;;;;4878333;29;20716;-88
2022/01/04 05:33:27;;;;;;;26.20;9.67;;;;;;;;;;4879362;29;20651;-89
2022/01/04 05:35:54;;;;;;;22.07;10.73;;;;;;;;;;4879187;29;20265;-88
2022/01/04 05:38:20;;;;;;;43.47;19.80;;;;;;;;;;4880525;29;20268;-88
2022/01/04 05:40:46;;;;;;;35.40;14.97;;;;;;;;;;4880285;29;20267;-88
2022/01/04 05:43:13;;;;;;;33.20;14.87;;;;;;;;;;4879155;29;20333;-88
2022/01/04 05:45:39;;;;;;;38.67;17.07;;;;;;;;;;4879150;29;20257;-88
2022/01/04 05:48:05;;;;;;;29.70;11.53;;;;;;;;;;4880527;29;20197;-88
2022/01/04 05:50:32;;;;;;;62.77;25.63;;;;;;;;;;4878865;29;20198;-88
2022/01/04 05:52:58;;;;;;;85.87;37.40;;;;;;;;;;4878627;29;20267;-88
2022/01/04 05:55:24;;;;;;;39.00;18.60;;;;;;;;;;4858565;29;20201;-88
2022/01/04 05:57:50;;;;;;;43.97;22.43;;;;;;;;;;4878471;29;20250;-88
2022/01/04 06:00:16;;;;;;;37.33;16.40;;;3.80;99.90;;;;;;4879642;29;20185;-88
2022/01/04 06:02:42;;;;;;;25.40;10.87;;;;;;;;;;4876946;29;20253;-88
2022/01/04 06:05:09;;;;;;;20.97;10.93;;;3.70;99.90;;;;;;4878222;29;20188;-88
2022/01/04 06:07:35;;;;;;;20.60;9.10;;;;;;;;;;4880723;29;20184;-88
2022/01/04 06:10:02;;;;;;;24.70;10.07;;;;;;;;;;4880264;29;20197;-88
2022/01/04 06:15:04;;;;;;;21.60;9.50;;;3.80;99.90;;;;;;4879972;29;20220;-87
2022/01/04 06:17:35;;;;;;;23.33;11.00;;;3.80;99.90;;;;;;4876226;29;20233;-88
2022/01/04 06:20:01;;;;;;;21.87;11.00;;;;;;;;;;4872728;29;20638;-88
2022/01/04 06:22:28;;;;;;;22.70;10.63;;;3.90;99.90;;;;;;4881854;29;20190;-86
2022/01/04 06:24:54;;;;;;;21.17;10.30;;;3.90;99.90;;;;;;4879773;29;20324;-88
2022/01/04 06:27:21;;;;;;;31.87;11.87;;;3.90;99.90;;;;;;4880685;29;20230;-87
2022/01/04 06:29:47;;;;;;;21.77;9.73;;;3.90;99.90;;;;;;4880179;29;20244;-88
2022/01/04 06:32:14;;;;;;;24.13;11.20;;;3.90;99.90;;;;;;4878963;29;20250;-87
2022/01/04 06:34:41;;;;;;;36.00;16.73;;;4.00;99.90;;;;;;4879890;29;20194;-93
2022/01/04 06:37:08;;;;;;;57.83;24.20;;;;;;;;;;4865320;29;20226;-87
2022/01/04 06:39:34;;;;;;;52.73;22.90;;;;;;;;;;4883032;29;20191;-88
2022/01/04 06:42:00;;;;;;;49.03;22.67;;;;;;;;;;4882063;29;20276;-88
2022/01/04 06:44:26;;;;;;;34.63;13.43;;;;;;;;;;4881224;29;20256;-88
2022/01/04 06:46:52;;;;;;;31.03;15.47;;;;;;;;;;4880338;29;20189;-89
2022/01/04 06:49:19;;;;;;;32.27;14.17;;;4.10;99.90;;;;;;4881798;29;20379;-88
2022/01/04 06:51:46;;;;;;;25.37;11.77;;;4.10;99.90;;;;;;4882528;29;20282;-89
2022/01/04 06:54:13;;;;;;;25.90;12.20;;;4.10;99.90;;;;;;4851548;29;20276;-89
2022/01/04 06:56:40;;;;;;;21.33;10.27;;;;;;;;;;4866506;29;20248;-88
2022/01/04 06:59:06;;;;;;;21.30;10.50;;;4.20;99.90;;;;;;4883134;29;20209;-89
2022/01/04 07:01:33;;;;;;;24.73;10.43;;;;;;;;;;4881193;29;20186;-88
2022/01/04 07:03:59;;;;;;;19.80;10.13;;;;;;;;;;4879000;29;20189;-88
2022/01/04 07:06:25;;;;;;;25.80;10.70;;;;;;;;;;4878648;29;20197;-89
2022/01/04 07:08:51;;;;;;;20.80;10.30;;;;;;;;;;4879908;29;20189;-88
2022/01/04 07:11:17;;;;;;;22.43;10.03;;;;;;;;;;4879716;29;20189;-88
2022/01/04 07:13:43;;;;;;;18.33;10.20;;;;;;;;;;4880068;29;20185;-87
2022/01/04 07:16:10;;;;;;;26.13;12.40;;;;;;;;;;4878830;29;20319;-88
2022/01/04 07:18:36;;;;;;;23.43;10.77;;;;;;;;;;4878944;29;20196;-86
2022/01/04 07:21:02;;;;;;;19.80;10.03;;;;;;;;;;4878497;29;20186;-88
2022/01/04 07:23:28;;;;;;;23.80;10.63;;;4.50;99.90;;;;;;4880664;29;20208;-89
2022/01/04 07:25:55;;;;;;;24.03;9.23;;;;;;;;;;4878449;29;20256;-88
2022/01/04 07:28:21;;;;;;;15.83;9.53;;;;;;;;;;4860476;29;20246;-90
2022/01/04 07:30:47;;;;;;;18.47;9.90;;;;;;;;;;4861866;29;20193;-89
2022/01/04 07:33:14;;;;;;;19.17;9.60;;;;;;;;;;4864871;29;20193;-88
2022/01/04 07:35:40;;;;;;;18.83;8.43;;;;;;;;;;4864648;29;20258;-92
2022/01/04 07:38:12;;;;;;;20.90;8.50;;;4.70;99.90;;;;;;4849716;29;20198;-91
2022/01/04 07:40:38;;;;;;;15.73;8.83;;;;;;;;;;4860627;29;20559;-86
2022/01/04 07:43:04;;;;;;;17.40;9.20;;;;;;;;;;4862997;29;20671;-89
2022/01/04 07:45:34;;;;;;;21.37;9.67;;;4.60;99.90;;;;;;4863102;29;20190;-88
2022/01/04 07:48:01;;;;;;;25.57;9.50;;;4.70;99.90;;;;;;4861486;29;20201;-87
2022/01/04 07:50:27;;;;;;;18.27;10.70;;;;;;;;;;4860522;29;20276;-86
2022/01/04 07:52:53;;;;;;;23.30;10.23;;;;;;;;;;4871194;29;20213;-88
2022/01/04 07:55:19;;;;;;;18.27;9.13;;;;;;;;;;4876271;29;20191;-87
2022/01/04 07:57:46;;;;;;;14.23;8.17;;;;;;;;;;4872519;29;20332;-90
2022/01/04 08:00:13;;;;;;;20.37;9.63;;;4.80;99.90;;;;;;4873317;29;20221;-91
2022/01/04 08:02:40;;;;;;;22.33;10.90;;;;;;;;;;4878201;29;20186;-87
2022/01/04 08:05:10;;;;;;;14.87;9.40;;;4.90;99.90;;;;;;4889955;29;20666;-87
2022/01/04 08:07:36;;;;;;;14.57;7.40;;;;;;;;;;4874305;29;20201;-86
2022/01/04 08:10:02;;;;;;;21.57;9.13;;;;;;;;;;4868937;29;20198;-87
2022/01/04 08:12:28;;;;;;;12.57;6.83;;;;;;;;;;4851788;29;20215;-87
2022/01/04 08:14:54;;;;;;;14.47;8.30;;;;;;;;;;4867241;29;20195;-86
2022/01/04 08:17:20;;;;;;;21.10;11.20;;;;;;;;;;4866941;29;20374;-86
2022/01/04 08:19:46;;;;;;;17.27;6.70;;;;;;;;;;4871058;29;20197;-85
2022/01/04 08:22:12;;;;;;;16.50;9.10;;;;;;;;;;4865423;29;20205;-86
2022/01/04 08:24:38;;;;;;;20.17;10.83;;;;;;;;;;4865635;29;20194;-85
2022/01/04 08:27:04;;;;;;;10.83;5.63;;;;;;;;;;4864647;29;20285;-86
2022/01/04 08:29:31;;;;;;;12.00;5.67;;;;;;;;;;4864669;29;20286;-85
2022/01/04 08:31:58;;;;;;;8.93;5.53;;;5.30;99.90;;;;;;4865416;29;20187;-86
2022/01/04 08:34:24;;;;;;;10.53;6.20;;;;;;;;;;4866176;29;20191;-87
2022/01/04 08:36:50;;;;;;;13.10;6.57;;;;;;;;;;4849181;29;20222;-85
2022/01/04 08:39:16;;;;;;;8.13;5.50;;;;;;;;;;4862824;29;20186;-84
2022/01/04 08:41:45;;;;;;;8.73;5.00;;;5.60;99.90;;;;;;4865330;29;20186;-83
2022/01/04 08:44:12;;;;;;;14.90;8.63;;;5.70;99.90;;;;;;4863468;29;20193;-85
2022/01/04 08:46:39;;;;;;;17.60;9.23;;;5.80;99.90;;;;;;4862039;29;20253;-83
2022/01/04 08:49:08;;;;;;;13.60;7.40;;;5.80;99.90;;;;;;4861706;29;20274;-89
2022/01/04 08:51:35;;;;;;;10.83;5.07;;;6.00;99.90;;;;;;4862464;29;20644;-83
2022/01/04 08:54:01;;;;;;;13.17;5.87;;;;;;;;;;4846425;29;20622;-83
2022/01/04 08:56:27;;;;;;;11.17;4.57;;;;;;;;;;4861193;29;20250;-84
2022/01/04 08:58:55;;;;;;;14.23;6.90;;;;;;;;;;4846579;29;20223;-86
2022/01/04 09:01:21;;;;;;;12.43;5.57;;;;;;;;;;4861750;29;20206;-88
2022/01/04 09:03:47;;;;;;;11.47;6.30;;;;;;;;;;4854572;29;20206;-87
2022/01/04 09:06:13;;;;;;;19.90;9.20;;;;;;;;;;4874190;29;20222;-86
2022/01/04 09:08:39;;;;;;;13.07;8.00;;;;;;;;;;4867299;29;20203;-84
2022/01/04 09:11:05;;;;;;;11.30;5.10;;;;;;;;;;4850083;29;20187;-85
2022/01/04 09:13:39;;;;;;;15.93;6.33;;;;;;;;;;4868380;29;20209;-85
2022/01/04 09:18:45;;;;;;;12.80;5.87;;;;;;;;;;4865740;29;20656;-84
2022/01/04 09:21:12;;;;;;;13.27;6.47;;;;;;;;;;4868702;29;20234;-85
2022/01/04 09:23:38;;;;;;;12.53;5.50;;;;;;;;;;4865544;29;20204;-85
2022/01/04 09:26:04;;;;;;;16.03;6.90;;;;;;;;;;4862595;29;20668;-84
2022/01/04 09:28:30;;;;;;;13.97;6.37;;;;;;;;;;4864083;29;20195;-85
2022/01/04 09:30:57;;;;;;;18.27;7.43;;;;;;;;;;4863780;29;20190;-84
2022/01/04 09:33:23;;;;;;;18.93;7.23;;;;;;;;;;4847799;29;20190;-84
2022/01/04 09:35:49;;;;;;;21.23;8.90;;;;;;;;;;4863854;29;20321;-85
2022/01/04 09:38:17;;;;;;;17.53;7.20;;;6.50;99.90;;;;;;4865477;29;20186;-86
2022/01/04 09:40:43;;;;;;;9.60;5.67;;;;;;;;;;4850822;29;20198;-85
2022/01/04 09:43:10;;;;;;;13.80;6.10;;;6.60;99.90;;;;;;4865569;29;20369;-84
2022/01/04 09:45:36;;;;;;;18.43;6.67;;;;;;;;;;4845231;29;20194;-87
2022/01/04 09:48:02;;;;;;;16.63;6.87;;;6.60;99.90;;;;;;4865288;29;20669;-85
2022/01/04 09:50:30;;;;;;;10.90;5.43;;;6.70;99.90;;;;;;4864197;29;20218;-85
2022/01/04 09:52:56;;;;;;;20.33;7.20;;;;;;;;;;4862758;29;20186;-86
2022/01/04 09:55:23;;;;;;;9.03;5.20;;;;;;;;;;4861591;29;20202;-84
2022/01/04 09:57:49;;;;;;;10.23;4.77;;;;;;;;;;4863714;29;20709;-82
2022/01/04 10:00:17;;;;;;;11.03;5.03;;;7.00;99.90;;;;;;4856515;29;20226;-83
2022/01/04 10:02:46;;;;;;;21.70;8.17;;;6.70;99.90;;;;;;4857980;29;20191;-83
2022/01/04 10:05:20;;;;;;;15.83;7.20;;;6.50;99.90;;;;;;4863855;29;20199;-85
2022/01/04 10:07:48;;;;;;;16.73;6.80;;;6.70;99.90;;;;;;4861868;29;20216;-84
2022/01/04 10:10:16;;;;;;;20.43;7.77;;;6.70;99.90;;;;;;4860490;29;20218;-83
2022/01/04 10:12:55;;;;;;;17.23;7.93;;;6.40;99.90;;;;;;4861729;29;20258;-83
2022/01/04 10:15:45;;;;;;;11.90;5.27;;;6.80;99.90;;;;;;4844942;29;20218;-83
2022/01/04 10:18:13;;;;;;;17.60;7.23;;;6.60;99.90;;;;;;4857674;29;20238;-84
2022/01/04 10:20:45;;;;;;;14.53;6.33;;;6.70;99.90;;;;;;4861213;29;20183;-84
2022/01/04 10:23:13;;;;;;;18.07;7.10;;;6.70;99.90;;;;;;4858537;29;20189;-84
2022/01/04 10:25:40;;;;;;;18.93;8.23;;;;;;;;;;4873470;29;20595;-84
2022/01/04 10:28:06;;;;;;;11.50;6.50;;;;;;;;;;4859980;29;20663;-84
2022/01/04 10:30:35;;;;;;;17.40;7.93;;;6.70;99.90;;;;;;4863411;29;20179;-85
2022/01/04 10:33:07;;;;;;;16.00;5.97;;;7.10;99.90;;;;;;4860230;29;20182;-84
2022/01/04 10:35:47;;;;;;;24.43;10.17;;;6.50;99.90;;;;;;4856517;29;20190;-84
2022/01/04 10:38:17;;;;;;;12.87;5.80;;;6.80;99.90;;;;;;4862461;29;20183;-83
2022/01/04 10:40:49;;;;;;;30.93;12.53;;;6.70;99.90;;;;;;4860008;29;20587;-85
2022/01/04 10:43:23;;;;;;;24.77;10.53;;;6.70;99.90;;;;;;4867092;29;20261;-83
2022/01/04 10:45:50;;;;;;;15.43;6.47;;;6.70;99.90;;;;;;4865081;29;20254;-82
2022/01/04 10:48:24;;;;;;;14.30;7.27;;;6.70;99.90;;;;;;4858943;29;20194;-83
2022/01/04 10:50:57;;;;;;;11.70;6.67;;;6.70;99.90;;;;;;4860488;29;20178;-84
2022/01/04 10:53:26;;;;;;;17.87;8.73;;;6.60;99.90;;;;;;4853951;29;20183;-83
2022/01/04 10:56:04;;;;;;;21.33;8.43;;;6.30;99.90;;;;;;4842522;29;20289;-83
2022/01/04 10:58:37;;;;;;;21.37;9.37;;;6.50;99.90;;;;;;4861173;29;20182;-83
2022/01/04 11:01:08;;;;;;;26.23;10.40;;;6.70;99.90;;;;;;4860157;29;20186;-82
2022/01/04 11:03:36;;;;;;;18.33;9.00;;;6.50;99.90;;;;;;4863790;29;20187;-83
2022/01/04 11:06:14;;;;;;;18.80;8.30;;;6.50;99.90;;;;;;4872649;29;20308;-83
2022/01/04 11:08:42;;;;;;;21.23;8.87;;;6.40;99.90;;;;;;4864864;29;20209;-83
2022/01/04 11:11:08;;;;;;;19.70;8.87;;;;;;;;;;4869178;29;20199;-84
2022/01/04 11:13:34;;;;;;;17.07;7.80;;;;;;;;;;4845535;29;20199;-84
2022/01/04 11:16:02;;;;;;;19.80;8.37;;;6.00;99.90;;;;;;4859364;29;20310;-83
2022/01/04 11:18:30;;;;;;;18.20;8.53;;;6.40;99.90;;;;;;4851776;29;20274;-85
2022/01/04 11:20:56;;;;;;;17.00;7.33;;;;;;;;;;4863738;29;20933;-85
2022/01/04 11:23:28;;;;;;;25.40;11.30;;;6.80;99.90;;;;;;4868513;29;20551;-83
2022/01/04 11:25:55;;;;;;;25.67;9.13;;;6.30;99.90;;;;;;4882022;29;20272;-84
2022/01/04 11:28:22;;;;;;;41.60;15.50;;;6.30;99.90;;;;;;4872498;29;20651;-87
2022/01/04 11:31:08;;;;;;;17.47;9.07;;;6.30;99.90;;;;;;4865032;29;20186;-84
2022/01/04 11:33:45;;;;;;;29.67;12.50;;;6.30;99.90;;;;;;4875456;29;20267;-82
2022/01/04 11:36:15;;;;;;;26.43;11.60;;;6.30;99.90;;;;;;4865476;29;20229;-84
2022/01/04 11:38:41;;;;;;;23.93;11.07;;;;;;;;;;4867741;29;20282;-83
2022/01/04 11:41:07;;;;;;;34.27;14.97;;;;;;;;;;4865125;29;20187;-85
2022/01/04 11:43:38;;;;;;;21.40;10.63;;;6.40;99.90;;;;;;4864617;29;20186;-84
2022/01/04 11:46:05;;;;;;;26.43;13.13;;;6.30;99.90;;;;;;4863059;29;20868;-85
2022/01/04 11:48:40;;;;;;;19.17;9.10;;;6.40;99.90;;;;;;4832200;29;20222;-85
2022/01/04 11:51:09;;;;;;;27.33;12.20;;;6.30;99.90;;;;;;4862803;29;20670;-85
2022/01/04 11:53:37;;;;;;;29.33;12.33;;;6.30;99.90;;;;;;4862518;29;20208;-84
2022/01/04 11:56:05;;;;;;;20.23;10.53;;;6.30;99.90;;;;;;4875225;29;20241;-84
2022/01/04 11:58:44;;;;;;;20.73;10.00;;;6.20;99.90;;;;;;4876769;29;20210;-84
2022/01/04 12:01:11;;;;;;;19.53;9.93;;;;;;;;;;4881583;29;20193;-85
2022/01/04 12:03:47;;;;;;;24.40;12.47;;;6.10;99.90;;;;;;4881694;29;20764;-84
2022/01/04 12:06:16;;;;;;;25.40;11.83;;;6.20;99.90;;;;;;4867116;29;20520;-85
2022/01/04 12:08:52;;;;;;;19.00;10.53;;;6.20;99.90;;;;;;4844542;29;20189;-85
2022/01/04 12:11:27;;;;;;;25.37;13.13;;;6.10;99.90;;;;;;4864583;29;20247;-85
2022/01/04 12:13:58;;;;;;;20.50;10.37;;;6.10;99.90;;;;;;4863609;29;20265;-84
2022/01/04 12:16:32;;;;;;;21.53;11.43;;;6.30;99.90;;;;;;4861656;29;20789;-83
2022/01/04 12:18:59;;;;;;;24.27;13.13;;;;;;;;;;4863597;29;20190;-84
2022/01/04 12:21:31;;;;;;;32.70;15.47;;;6.10;99.90;;;;;;4863099;29;20266;-85
2022/01/04 12:23:57;;;;;;;23.13;12.37;;;;;;;;;;4862347;29;20178;-83
2022/01/04 12:26:32;;;;;;;23.37;13.00;;;6.10;99.90;;;;;;4862380;29;20712;-84
2022/01/04 12:28:58;;;;;;;25.60;13.33;;;;;;;;;;4870964;29;20600;-83
2022/01/04 12:31:33;;;;;;;22.40;12.30;;;6.20;99.90;;;;;;4868437;29;20226;-82
2022/01/04 12:34:07;;;;;;;28.87;15.20;;;5.90;99.90;;;;;;4863499;29;20186;-83
2022/01/04 12:36:42;;;;;;;31.73;14.77;;;6.20;99.90;;;;;;4862924;29;20215;-83
2022/01/04 12:39:13;;;;;;;26.90;14.33;;;6.00;99.90;;;;;;4860728;29;20670;-83
2022/01/04 12:41:40;;;;;;;30.17;14.90;;;5.90;99.90;;;;;;4865269;29;20222;-84
2022/01/04 12:44:08;;;;;;;23.93;11.23;;;5.90;99.90;;;;;;4868960;29;20214;-84
2022/01/04 12:46:39;;;;;;;34.07;16.20;;;5.90;99.90;;;;;;4849007;29;20198;-85
2022/01/04 12:49:12;;;;;;;26.90;14.83;;;5.80;99.90;;;;;;4863035;29;20186;-84
2022/01/04 12:51:39;;;;;;;31.43;17.30;;;5.80;99.90;;;;;;4851217;29;20223;-84
2022/01/04 12:54:07;;;;;;;30.83;16.20;;;5.80;99.90;;;;;;4846003;29;20190;-85
2022/01/04 12:56:40;;;;;;;25.30;15.00;;;5.80;99.90;;;;;;4844208;29;20692;-84
2022/01/04 12:59:06;;;;;;;23.57;14.50;;;;;;;;;;4855116;29;20217;-84
2022/01/04 13:01:33;;;;;;;36.23;18.27;;;5.80;99.90;;;;;;4857514;29;20222;-84
2022/01/04 13:04:00;;;;;;;43.23;22.67;;;5.80;99.90;;;;;;4858270;29;20266;-85
2022/01/04 13:06:30;;;;;;;41.37;19.60;;;5.80;99.90;;;;;;4875149;29;20242;-86
2022/01/04 13:08:58;;;;;;;33.33;18.20;;;5.80;99.90;;;;;;4865982;29;20259;-85
2022/01/04 13:11:25;;;;;;;30.10;16.00;;;;;;;;;;4862184;29;20182;-85
2022/01/04 13:14:04;;;;;;;30.67;16.40;;;5.70;99.90;;;;;;4863319;29;20695;-85
2022/01/04 13:16:31;;;;;;;31.77;17.33;;;5.70;99.90;;;;;;4863311;29;20249;-86
2022/01/04 13:19:13;;;;;;;28.67;16.27;;;;;;;;;;4852339;29;20674;-85
2022/01/04 13:21:39;;;;;;;28.63;15.37;;;;;;;;;;4851339;29;20789;-84
2022/01/04 13:24:05;;;;;;;26.13;15.07;;;5.70;99.90;;;;;;4858360;29;20620;-85
2022/01/04 13:26:31;;;;;;;29.80;16.53;;;;;;;;;;4857152;29;20226;-85
2022/01/04 13:28:59;;;;;;;27.80;14.87;;;5.60;99.90;;;;;;4855745;29;20670;-85
2022/01/04 13:31:25;;;;;;;30.00;15.20;;;;;;;;;;4865132;29;20278;-85
2022/01/04 13:33:52;;;;;;;27.97;15.77;;;5.60;99.90;;;;;;4860798;29;20186;-84
2022/01/04 13:36:21;;;;;;;30.23;15.77;;;5.60;99.90;;;;;;4843202;29;20218;-85
2022/01/04 13:38:50;;;;;;;26.00;14.57;;;;;;;;;;4858092;29;20202;-85
2022/01/04 13:41:16;;;;;;;30.00;15.33;;;;;;;;;;4856207;29;20766;-85
2022/01/04 13:43:46;;;;;;;25.90;14.20;;;;;;;;;;4878783;29;20198;-86
2022/01/04 13:46:13;;;;;;;27.27;14.10;;;;;;;;;;4858174;29;20222;-83
2022/01/04 13:48:43;;;;;;;31.27;15.27;;;5.60;99.90;;;;;;4857992;29;20633;-84
2022/01/04 13:51:15;;;;;;;25.73;14.07;;;5.60;99.90;;;;;;4866637;29;20230;-84
2022/01/04 13:53:46;;;;;;;23.93;13.37;;;5.60;99.90;;;;;;4855081;29;20187;-84
2022/01/04 13:56:14;;;;;;;26.73;14.97;;;;;;;;;;4877682;29;20238;-85